createdAt,value
2019-04-03T00:00:45.564Z,3.00
2019-04-03T00:01:45.551Z,3.00
2019-04-03T00:02:45.567Z,3.10
2019-04-03T00:03:45.523Z,3.00
2019-04-03T00:04:45.513Z,3.20
2019-04-03T00:05:45.501Z,3.10
2019-04-03T00:06:45.496Z,3.00
2019-04-03T00:07:45.485Z,3.20
2019-04-03T00:08:45.479Z,3.40
2019-04-03T00:09:45.462Z,3.10
2019-04-03T00:10:45.450Z,3.20
2019-04-03T00:11:45.439Z,3.20
2019-04-03T00:12:45.429Z,3.40
2019-04-03T00:13:45.418Z,3.00
2019-04-03T00:14:45.429Z,3.00
2019-04-03T00:15:45.391Z,3.30
2019-04-03T00:16:46.021Z,3.20
2019-04-03T00:17:46.080Z,3.30
2019-04-03T00:18:47.260Z,3.10
2019-04-03T00:19:45.780Z,3.30
2019-04-03T00:20:46.878Z,3.20
2019-04-03T00:21:45.329Z,3.10
2019-04-03T00:22:46.600Z,3.20
2019-04-03T00:23:45.302Z,3.10
2019-04-03T00:24:45.292Z,3.10
2019-04-03T00:25:45.279Z,3.00
2019-04-03T00:26:45.595Z,3.20
2019-04-03T00:27:45.258Z,3.30
2019-04-03T00:28:45.246Z,3.60
2019-04-03T00:29:45.237Z,3.40
2019-04-03T00:30:45.228Z,3.40
2019-04-03T00:31:45.219Z,3.00
2019-04-03T00:32:45.617Z,3.20
2019-04-03T00:33:45.196Z,3.70
2019-04-03T00:34:45.209Z,3.20
2019-04-03T00:35:45.169Z,3.40
2019-04-03T00:36:45.160Z,3.30
2019-04-03T00:37:45.147Z,3.30
2019-04-03T00:38:45.165Z,3.20
2019-04-03T00:39:45.130Z,3.60
2019-04-03T00:40:45.118Z,3.50
2019-04-03T00:41:45.107Z,3.20
2019-04-03T00:42:45.098Z,3.10
2019-04-03T00:43:45.086Z,3.40
2019-04-03T00:44:45.155Z,3.20
2019-04-03T00:45:45.062Z,3.00
2019-04-03T00:46:45.046Z,3.40
2019-04-03T00:47:45.036Z,3.30
2019-04-03T00:48:45.251Z,3.20
2019-04-03T00:49:45.014Z,3.30
2019-04-03T00:50:45.040Z,3.40
2019-04-03T00:51:44.998Z,3.40
2019-04-03T00:52:44.985Z,3.20
2019-04-03T00:53:45.111Z,3.40
2019-04-03T00:54:44.959Z,3.30
2019-04-03T00:55:44.947Z,3.40
2019-04-03T00:56:44.968Z,3.40
2019-04-03T00:57:44.925Z,3.50
2019-04-03T00:58:44.956Z,3.40
2019-04-03T00:59:44.908Z,3.70
2019-04-03T01:00:44.959Z,3.20
2019-04-03T01:01:44.887Z,3.40
2019-04-03T01:02:44.967Z,3.60
2019-04-03T01:03:44.859Z,3.60
2019-04-03T01:04:44.849Z,3.40
2019-04-03T01:05:44.988Z,3.10
2019-04-03T01:06:44.830Z,3.50
2019-04-03T01:07:44.819Z,3.50
2019-04-03T01:08:45.129Z,3.20
2019-04-03T01:09:44.811Z,3.50
2019-04-03T01:10:44.782Z,3.50
2019-04-03T01:11:44.775Z,3.20
2019-04-03T01:12:44.836Z,3.60
2019-04-03T01:13:44.751Z,3.50
2019-04-03T01:14:44.935Z,3.40
2019-04-03T01:15:44.726Z,3.30
2019-04-03T01:16:44.772Z,3.50
2019-04-03T01:17:44.703Z,3.70
2019-04-03T01:18:44.696Z,3.40
2019-04-03T01:19:44.686Z,3.50
2019-04-03T01:20:44.701Z,3.80
2019-04-03T01:21:44.663Z,3.40
2019-04-03T01:22:44.764Z,3.50
2019-04-03T01:23:44.743Z,3.50
2019-04-03T01:24:44.626Z,3.10
2019-04-03T01:25:44.614Z,3.30
2019-04-03T01:26:44.616Z,3.70
2019-04-03T01:27:44.597Z,3.40
2019-04-03T01:28:44.586Z,3.80
2019-04-03T01:29:44.577Z,3.70
2019-04-03T01:30:44.752Z,3.10
2019-04-03T01:31:45.217Z,4.00
2019-04-03T01:32:46.083Z,3.30
2019-04-03T01:33:46.128Z,3.50
2019-04-03T01:34:47.010Z,3.40
2019-04-03T01:35:47.086Z,3.50
2019-04-03T01:36:44.552Z,3.50
2019-04-03T01:37:44.482Z,3.40
2019-04-03T01:38:44.518Z,3.60
2019-04-03T01:39:44.552Z,3.50
2019-04-03T01:40:44.453Z,3.50
2019-04-03T01:41:44.550Z,3.30
2019-04-03T01:42:44.427Z,3.60
2019-04-03T01:43:44.486Z,3.20
2019-04-03T01:44:44.413Z,3.60
2019-04-03T01:45:44.394Z,3.60
2019-04-03T01:46:44.383Z,3.50
2019-04-03T01:47:44.372Z,3.80
2019-04-03T01:48:44.495Z,3.10
2019-04-03T01:49:44.350Z,3.50
2019-04-03T01:50:44.369Z,3.30
2019-04-03T01:51:44.332Z,3.70
2019-04-03T01:52:44.424Z,3.50
2019-04-03T01:53:44.310Z,3.60
2019-04-03T01:54:44.299Z,3.70
2019-04-03T01:55:44.283Z,3.70
2019-04-03T01:56:44.305Z,3.70
2019-04-03T01:57:44.264Z,3.50
2019-04-03T01:58:44.255Z,3.50
2019-04-03T01:59:44.245Z,3.60
2019-04-03T02:00:44.233Z,3.50
2019-04-03T02:01:44.222Z,3.40
2019-04-03T02:02:44.242Z,3.50
2019-04-03T02:03:44.200Z,3.40
2019-04-03T02:04:44.188Z,3.60
2019-04-03T02:05:44.232Z,3.40
2019-04-03T02:06:44.354Z,3.80
2019-04-03T02:07:44.668Z,3.40
2019-04-03T02:08:44.928Z,3.50
2019-04-03T02:09:46.247Z,3.50
2019-04-03T02:10:44.281Z,3.90
2019-04-03T02:11:44.112Z,3.40
2019-04-03T02:12:44.100Z,3.70
2019-04-03T02:13:44.089Z,3.40
2019-04-03T02:14:44.279Z,3.50
2019-04-03T02:15:44.062Z,3.60
2019-04-03T02:16:44.051Z,3.80
2019-04-03T02:17:44.040Z,3.60
2019-04-03T02:18:44.055Z,3.70
2019-04-03T02:19:44.017Z,3.70
2019-04-03T02:20:44.014Z,3.70
2019-04-03T02:21:43.997Z,3.50
2019-04-03T02:22:43.991Z,3.80
2019-04-03T02:23:43.983Z,3.10
2019-04-03T02:24:43.967Z,3.60
2019-04-03T02:25:43.958Z,3.80
2019-04-03T02:26:43.982Z,3.50
2019-04-03T02:27:43.929Z,3.90
2019-04-03T02:28:44.142Z,3.50
2019-04-03T02:29:43.907Z,3.50
2019-04-03T02:30:46.020Z,3.50
2019-04-03T02:31:43.890Z,3.70
2019-04-03T02:32:44.216Z,3.70
2019-04-03T02:33:43.923Z,3.70
2019-04-03T02:34:44.197Z,3.80
2019-04-03T02:35:43.847Z,3.50
2019-04-03T02:36:45.437Z,3.80
2019-04-03T02:37:44.052Z,4.20
2019-04-03T02:38:43.815Z,3.80
2019-04-03T02:39:43.798Z,3.80
2019-04-03T02:40:43.999Z,3.20
2019-04-03T02:41:43.850Z,3.60
2019-04-03T02:42:43.772Z,3.70
2019-04-03T02:43:46.560Z,3.60
2019-04-03T02:44:43.832Z,3.70
2019-04-03T02:45:44.219Z,3.60
2019-04-03T02:46:43.721Z,3.90
2019-04-03T02:47:43.725Z,3.60
2019-04-03T02:48:43.698Z,3.60
2019-04-03T02:49:44.020Z,4.00
2019-04-03T02:50:46.565Z,3.60
2019-04-03T02:51:44.001Z,3.60
2019-04-03T02:52:43.653Z,3.60
2019-04-03T02:53:43.643Z,3.50
2019-04-03T02:54:43.758Z,3.80
2019-04-03T02:55:43.623Z,3.80
2019-04-03T02:56:45.463Z,3.70
2019-04-03T02:57:43.602Z,3.70
2019-04-03T02:58:43.639Z,4.10
2019-04-03T02:59:43.575Z,3.70
2019-04-03T03:00:43.604Z,3.80
2019-04-03T03:01:43.748Z,3.60
2019-04-03T03:02:45.396Z,3.80
2019-04-03T03:03:43.740Z,3.80
2019-04-03T03:04:43.524Z,3.70
2019-04-03T03:05:43.513Z,4.00
2019-04-03T03:06:43.803Z,3.90
2019-04-03T03:07:43.486Z,3.70
2019-04-03T03:08:43.518Z,3.70
2019-04-03T03:09:46.926Z,3.90
2019-04-03T03:10:43.504Z,3.80
2019-04-03T03:11:43.447Z,3.80
2019-04-03T03:12:43.441Z,3.80
2019-04-03T03:13:43.425Z,3.70
2019-04-03T03:14:43.787Z,3.80
2019-04-03T03:15:44.766Z,4.00
2019-04-03T03:16:43.403Z,3.70
2019-04-03T03:17:43.382Z,3.80
2019-04-03T03:18:43.509Z,3.80
2019-04-03T03:19:43.614Z,3.80
2019-04-03T03:20:43.376Z,3.90
2019-04-03T03:21:44.795Z,3.90
2019-04-03T03:22:43.324Z,3.90
2019-04-03T03:23:43.502Z,3.90
2019-04-03T03:24:43.304Z,3.50
2019-04-03T03:25:43.302Z,3.70
2019-04-03T03:26:43.284Z,3.90
2019-04-03T03:27:43.351Z,3.80
2019-04-03T03:28:45.572Z,3.60
2019-04-03T03:29:43.243Z,3.80
2019-04-03T03:30:54.764Z,3.70
2019-04-03T03:32:05.137Z,3.60
2019-04-03T03:32:44.709Z,3.70
2019-04-03T03:33:43.759Z,4.20
2019-04-03T03:34:54.113Z,3.70
2019-04-03T03:35:47.160Z,4.00
2019-04-03T03:36:43.629Z,3.60
2019-04-03T03:37:43.194Z,3.80
2019-04-03T03:38:43.148Z,4.00
2019-04-03T03:39:44.239Z,3.70
2019-04-03T03:40:45.237Z,3.70
2019-04-03T03:41:43.110Z,3.80
2019-04-03T03:42:43.105Z,3.80
2019-04-03T03:43:43.428Z,4.20
2019-04-03T03:44:45.510Z,3.70
2019-04-03T03:45:43.077Z,3.90
2019-04-03T03:46:43.093Z,3.70
2019-04-03T03:47:43.045Z,3.60
2019-04-03T03:48:44.831Z,4.20
2019-04-03T03:49:43.159Z,3.90
2019-04-03T03:50:43.016Z,3.90
2019-04-03T03:51:43.003Z,3.90
2019-04-03T03:52:43.009Z,3.80
2019-04-03T03:53:44.801Z,3.80
2019-04-03T03:54:42.973Z,4.20
2019-04-03T03:55:43.426Z,4.10
2019-04-03T03:56:42.949Z,4.20
2019-04-03T03:57:42.972Z,4.30
2019-04-03T03:58:45.680Z,3.80
2019-04-03T03:59:42.917Z,4.00
2019-04-03T04:00:42.975Z,4.00
2019-04-03T04:01:42.897Z,4.00
2019-04-03T04:02:44.870Z,3.90
2019-04-03T04:03:42.871Z,3.70
2019-04-03T04:04:46.651Z,3.90
2019-04-03T04:05:43.908Z,4.10
2019-04-03T04:06:42.845Z,3.90
2019-04-03T04:07:43.114Z,3.90
2019-04-03T04:08:44.837Z,4.00
2019-04-03T04:09:42.800Z,4.20
2019-04-03T04:10:42.798Z,3.90
2019-04-03T04:11:43.129Z,4.00
2019-04-03T04:12:42.802Z,4.00
2019-04-03T04:13:47.445Z,4.30
2019-04-03T04:14:43.752Z,4.30
2019-04-03T04:15:42.732Z,3.80
2019-04-03T04:16:42.989Z,4.00
2019-04-03T04:17:42.711Z,4.20
2019-04-03T04:18:42.764Z,4.00
2019-04-03T04:19:42.730Z,4.20
2019-04-03T04:20:42.682Z,3.80
2019-04-03T04:21:44.320Z,4.20
2019-04-03T04:22:42.894Z,3.90
2019-04-03T04:23:42.893Z,4.20
2019-04-03T04:24:42.690Z,3.80
2019-04-03T04:25:44.384Z,3.80
2019-04-03T04:26:42.611Z,4.10
2019-04-03T04:27:42.606Z,4.30
2019-04-03T04:28:42.588Z,3.80
2019-04-03T04:29:42.578Z,3.90
2019-04-03T04:30:43.062Z,4.40
2019-04-03T04:31:44.295Z,4.40
2019-04-03T04:32:45.685Z,4.00
2019-04-03T04:33:42.539Z,4.30
2019-04-03T04:34:42.667Z,4.30
2019-04-03T04:35:42.511Z,4.30
2019-04-03T04:36:42.499Z,4.00
2019-04-03T04:37:42.495Z,4.00
2019-04-03T04:38:42.484Z,4.00
2019-04-03T04:39:42.471Z,4.50
2019-04-03T04:40:42.603Z,4.20
2019-04-03T04:41:42.549Z,4.00
2019-04-03T04:42:42.440Z,4.10
2019-04-03T04:43:42.757Z,4.30
2019-04-03T04:44:42.415Z,4.00
2019-04-03T04:45:43.015Z,4.20
2019-04-03T04:46:44.588Z,4.00
2019-04-03T04:47:42.386Z,4.10
2019-04-03T04:48:42.366Z,4.20
2019-04-03T04:49:42.388Z,4.00
2019-04-03T04:50:42.349Z,4.00
2019-04-03T04:51:42.454Z,4.00
2019-04-03T04:52:42.325Z,4.20
2019-04-03T04:53:42.316Z,4.10
2019-04-03T04:54:43.025Z,4.00
2019-04-03T04:55:42.326Z,4.20
2019-04-03T04:56:42.278Z,4.20
2019-04-03T04:57:42.267Z,4.10
2019-04-03T04:58:43.608Z,4.00
2019-04-03T04:59:44.321Z,4.00
2019-04-03T05:00:42.233Z,3.90
2019-04-03T05:01:42.250Z,4.10
2019-04-03T05:02:42.327Z,3.70
2019-04-03T05:03:42.205Z,4.30
2019-04-03T05:04:42.404Z,3.90
2019-04-03T05:05:42.182Z,4.10
2019-04-03T05:06:42.168Z,4.10
2019-04-03T05:07:42.163Z,4.30
2019-04-03T05:08:42.145Z,4.30
2019-04-03T05:09:42.303Z,4.40
2019-04-03T05:10:42.126Z,4.40
2019-04-03T05:11:42.116Z,4.10
2019-04-03T05:12:44.762Z,4.20
2019-04-03T05:13:42.375Z,4.20
2019-04-03T05:14:42.078Z,4.40
2019-04-03T05:15:42.068Z,3.80
2019-04-03T05:16:42.057Z,4.10
2019-04-03T05:17:42.046Z,4.10
2019-04-03T05:18:42.038Z,4.00
2019-04-03T05:19:42.072Z,4.00
2019-04-03T05:20:42.016Z,4.00
2019-04-03T05:21:42.019Z,4.00
2019-04-03T05:22:42.408Z,4.00
2019-04-03T05:23:41.979Z,4.20
2019-04-03T05:24:41.970Z,3.90
2019-04-03T05:25:42.191Z,4.00
2019-04-03T05:26:41.950Z,3.70
2019-04-03T05:27:41.942Z,4.20
2019-04-03T05:28:53.547Z,4.00
2019-04-03T05:29:42.919Z,4.50
2019-04-03T05:30:42.060Z,3.90
2019-04-03T05:31:41.905Z,4.20
2019-04-03T05:32:42.087Z,4.10
2019-04-03T05:33:42.436Z,4.10
2019-04-03T05:34:43.542Z,4.10
2019-04-03T05:35:41.845Z,4.20
2019-04-03T05:36:41.833Z,4.00
2019-04-03T05:37:41.830Z,4.20
2019-04-03T05:38:41.963Z,4.10
2019-04-03T05:39:41.808Z,4.20
2019-04-03T05:40:41.795Z,4.20
2019-04-03T05:41:41.785Z,4.10
2019-04-03T05:42:41.769Z,4.20
2019-04-03T05:43:41.764Z,4.50
2019-04-03T05:44:41.745Z,4.20
2019-04-03T05:45:42.318Z,4.10
2019-04-03T05:46:41.730Z,4.20
2019-04-03T05:47:41.713Z,4.10
2019-04-03T05:48:41.702Z,3.80
2019-04-03T05:49:42.024Z,4.40
2019-04-03T05:50:41.907Z,4.10
2019-04-03T05:51:41.673Z,3.90
2019-04-03T05:52:41.661Z,4.40
2019-04-03T05:53:41.655Z,3.90
2019-04-03T05:54:44.005Z,4.20
2019-04-03T05:55:41.817Z,4.10
2019-04-03T05:56:42.988Z,4.20
2019-04-03T05:57:41.601Z,3.80
2019-04-03T05:58:54.050Z,4.20
2019-04-03T05:59:44.158Z,4.20
2019-04-03T06:00:41.578Z,4.00
2019-04-03T06:01:45.528Z,4.20
2019-04-03T06:02:41.823Z,4.20
2019-04-03T06:03:44.878Z,4.10
2019-04-03T06:04:41.849Z,4.10
2019-04-03T06:05:43.225Z,4.40
2019-04-03T06:06:41.526Z,3.90
2019-04-03T06:07:41.523Z,4.20
2019-04-03T06:08:41.479Z,4.10
2019-04-03T06:09:41.470Z,4.40
2019-04-03T06:10:41.462Z,4.10
2019-04-03T06:11:41.744Z,3.90
2019-04-03T06:12:44.995Z,4.20
2019-04-03T06:13:41.762Z,3.90
2019-04-03T06:14:41.413Z,4.20
2019-04-03T06:15:41.403Z,4.10
2019-04-03T06:16:41.391Z,3.80
2019-04-03T06:17:41.380Z,4.20
2019-04-03T06:18:41.369Z,4.50
2019-04-03T06:19:41.365Z,4.20
2019-04-03T06:20:43.561Z,4.00
2019-04-03T06:21:41.337Z,4.00
2019-04-03T06:22:41.335Z,3.90
2019-04-03T06:23:41.318Z,4.00
2019-04-03T06:24:41.307Z,4.00
2019-04-03T06:25:41.504Z,4.30
2019-04-03T06:26:44.015Z,4.50
2019-04-03T06:27:45.211Z,4.00
2019-04-03T06:28:42.776Z,4.00
2019-04-03T06:29:41.488Z,4.00
2019-04-03T06:30:41.462Z,3.90
2019-04-03T06:31:41.268Z,3.90
2019-04-03T06:32:41.222Z,3.80
2019-04-03T06:33:41.209Z,4.20
2019-04-03T06:34:43.237Z,4.30
2019-04-03T06:35:41.465Z,4.00
2019-04-03T06:36:41.177Z,4.20
2019-04-03T06:37:41.199Z,4.50
2019-04-03T06:38:41.149Z,4.30
2019-04-03T06:39:41.139Z,4.20
2019-04-03T06:40:41.124Z,3.90
2019-04-03T06:41:41.933Z,4.30
2019-04-03T06:42:44.025Z,4.30
2019-04-03T06:43:41.411Z,4.30
2019-04-03T06:44:41.086Z,4.20
2019-04-03T06:45:43.268Z,3.90
2019-04-03T06:46:41.187Z,4.10
2019-04-03T06:47:41.194Z,4.10
2019-04-03T06:48:41.037Z,4.30
2019-04-03T06:49:41.179Z,4.20
2019-04-03T06:50:41.200Z,4.10
2019-04-03T06:51:41.114Z,4.30
2019-04-03T06:52:40.993Z,4.00
2019-04-03T06:53:40.981Z,4.40
2019-04-03T06:54:43.938Z,3.90
2019-04-03T06:55:41.006Z,3.80
2019-04-03T06:56:41.295Z,4.50
2019-04-03T06:57:40.942Z,4.00
2019-04-03T06:58:43.585Z,4.00
2019-04-03T06:59:40.914Z,4.40
2019-04-03T07:00:41.117Z,4.10
2019-04-03T07:01:40.899Z,4.00
2019-04-03T07:02:40.959Z,4.20
2019-04-03T07:03:40.875Z,4.20
2019-04-03T07:04:41.244Z,3.80
2019-04-03T07:05:41.937Z,4.60
2019-04-03T07:06:40.844Z,4.10
2019-04-03T07:07:40.866Z,4.00
2019-04-03T07:08:41.186Z,3.90
2019-04-03T07:09:40.814Z,4.00
2019-04-03T07:10:40.793Z,4.10
2019-04-03T07:11:43.290Z,4.10
2019-04-03T07:12:40.882Z,3.90
2019-04-03T07:13:40.797Z,4.20
2019-04-03T07:14:40.752Z,4.40
2019-04-03T07:15:40.742Z,4.10
2019-04-03T07:16:40.731Z,4.20
2019-04-03T07:17:40.723Z,4.00
2019-04-03T07:18:40.704Z,4.00
2019-04-03T07:19:41.028Z,4.30
2019-04-03T07:20:40.882Z,4.00
2019-04-03T07:21:40.673Z,4.20
2019-04-03T07:22:40.866Z,3.90
2019-04-03T07:23:40.653Z,4.00
2019-04-03T07:24:40.642Z,4.40
2019-04-03T07:25:40.678Z,4.30
2019-04-03T07:26:40.676Z,4.30
2019-04-03T07:27:42.275Z,4.20
2019-04-03T07:28:42.260Z,4.10
2019-04-03T07:29:40.677Z,4.30
2019-04-03T07:30:40.577Z,4.00
2019-04-03T07:31:40.659Z,4.30
2019-04-03T07:32:40.556Z,4.20
2019-04-03T07:33:40.543Z,4.10
2019-04-03T07:34:40.743Z,4.50
2019-04-03T07:35:40.690Z,4.10
2019-04-03T07:36:41.362Z,4.30
2019-04-03T07:37:40.543Z,4.30
2019-04-03T07:38:40.486Z,4.40
2019-04-03T07:39:40.566Z,4.00
2019-04-03T07:40:40.464Z,4.40
2019-04-03T07:41:41.643Z,4.20
2019-04-03T07:42:40.444Z,4.10
2019-04-03T07:43:40.468Z,4.10
2019-04-03T07:44:40.578Z,4.30
2019-04-03T07:45:40.411Z,3.90
2019-04-03T07:46:40.480Z,4.10
2019-04-03T07:47:40.387Z,4.20
2019-04-03T07:48:40.421Z,4.60
2019-04-03T07:49:40.571Z,3.80
2019-04-03T07:50:41.975Z,3.90
2019-04-03T07:51:41.589Z,4.40
2019-04-03T07:52:40.495Z,4.10
2019-04-03T07:53:40.323Z,4.40
2019-04-03T07:54:40.450Z,4.40
2019-04-03T07:55:43.157Z,4.40
2019-04-03T07:56:40.290Z,4.30
2019-04-03T07:57:41.387Z,4.10
2019-04-03T07:58:40.264Z,4.40
2019-04-03T07:59:40.438Z,4.00
2019-04-03T08:00:40.240Z,3.90
2019-04-03T08:01:41.317Z,4.30
2019-04-03T08:02:40.600Z,4.20
2019-04-03T08:03:40.319Z,4.20
2019-04-03T08:04:40.257Z,4.30
2019-04-03T08:05:40.421Z,4.10
2019-04-03T08:06:40.244Z,4.10
2019-04-03T08:07:40.436Z,4.50
2019-04-03T08:08:40.152Z,4.20
2019-04-03T08:09:40.142Z,4.50
2019-04-03T08:10:40.130Z,4.30
2019-04-03T08:11:40.125Z,4.10
2019-04-03T08:12:40.108Z,4.20
2019-04-03T08:13:40.213Z,4.00
2019-04-03T08:14:41.119Z,4.40
2019-04-03T08:15:40.184Z,4.40
2019-04-03T08:16:42.224Z,4.40
2019-04-03T08:17:40.599Z,4.50
2019-04-03T08:18:40.041Z,4.10
2019-04-03T08:19:40.218Z,3.70
2019-04-03T08:20:40.020Z,4.60
2019-04-03T08:21:40.011Z,4.10
2019-04-03T08:22:40.176Z,4.40
2019-04-03T08:23:39.992Z,4.40
2019-04-03T08:24:40.199Z,4.20
2019-04-03T08:25:42.395Z,4.30
2019-04-03T08:26:40.301Z,4.50
2019-04-03T08:27:40.209Z,4.10
2019-04-03T08:28:39.937Z,4.10
2019-04-03T08:29:39.927Z,4.30
2019-04-03T08:30:40.632Z,4.00
2019-04-03T08:31:42.604Z,4.10
2019-04-03T08:32:39.887Z,4.10
2019-04-03T08:33:39.876Z,4.20
2019-04-03T08:34:39.946Z,4.50
2019-04-03T08:35:39.860Z,4.10
2019-04-03T08:36:39.980Z,4.10
2019-04-03T08:37:41.649Z,4.30
2019-04-03T08:38:40.021Z,3.90
2019-04-03T08:39:39.810Z,4.20
2019-04-03T08:40:39.798Z,4.00
2019-04-03T08:41:39.789Z,4.20
2019-04-03T08:42:39.781Z,4.10
2019-04-03T08:43:40.138Z,4.10
2019-04-03T08:44:39.816Z,4.20
2019-04-03T08:45:39.742Z,4.10
2019-04-03T08:46:43.026Z,4.10
2019-04-03T08:47:39.726Z,4.20
2019-04-03T08:48:39.766Z,4.30
2019-04-03T08:49:39.782Z,4.00
2019-04-03T08:50:39.688Z,4.00
2019-04-03T08:51:39.916Z,3.90
2019-04-03T08:52:39.704Z,3.80
2019-04-03T08:53:39.812Z,4.00
2019-04-03T08:54:41.474Z,4.30
2019-04-03T08:55:39.675Z,4.00
2019-04-03T08:56:39.897Z,4.10
2019-04-03T08:57:39.776Z,3.90
2019-04-03T08:58:39.603Z,3.70
2019-04-03T08:59:39.653Z,4.00
2019-04-03T09:00:39.699Z,3.90
2019-04-03T09:01:39.608Z,4.20
2019-04-03T09:02:42.472Z,4.10
2019-04-03T09:03:39.849Z,3.80
2019-04-03T09:04:39.533Z,4.20
2019-04-03T09:05:39.741Z,3.90
2019-04-03T09:06:39.573Z,4.20
2019-04-03T09:07:39.537Z,4.30
2019-04-03T09:08:39.494Z,3.90
2019-04-03T09:09:39.552Z,4.10
2019-04-03T09:10:39.469Z,4.00
2019-04-03T09:11:39.457Z,4.10
2019-04-03T09:12:39.444Z,3.90
2019-04-03T09:13:39.475Z,4.10
2019-04-03T09:14:39.423Z,4.10
2019-04-03T09:15:39.602Z,4.00
2019-04-03T09:16:39.402Z,3.70
2019-04-03T09:17:39.391Z,4.00
2019-04-03T09:18:39.712Z,4.00
2019-04-03T09:19:41.764Z,4.30
2019-04-03T09:20:41.082Z,3.90
2019-04-03T09:21:39.353Z,4.50
2019-04-03T09:22:39.336Z,4.40
2019-04-03T09:23:39.324Z,3.90
2019-04-03T09:24:39.313Z,4.10
2019-04-03T09:25:39.309Z,3.80
2019-04-03T09:26:39.295Z,4.20
2019-04-03T09:27:40.612Z,4.10
2019-04-03T09:28:41.251Z,4.20
2019-04-03T09:29:39.263Z,4.10
2019-04-03T09:30:39.246Z,3.70
2019-04-03T09:31:39.470Z,4.10
2019-04-03T09:32:39.226Z,3.90
2019-04-03T09:33:39.493Z,4.00
2019-04-03T09:34:39.249Z,4.10
2019-04-03T09:35:39.199Z,4.30
2019-04-03T09:36:39.185Z,4.00
2019-04-03T09:37:39.205Z,4.20
2019-04-03T09:38:40.515Z,3.90
2019-04-03T09:39:39.147Z,4.00
2019-04-03T09:40:39.328Z,4.00
2019-04-03T09:41:39.126Z,3.90
2019-04-03T09:42:39.119Z,4.10
2019-04-03T09:43:40.043Z,3.80
2019-04-03T09:44:39.099Z,4.10
2019-04-03T09:45:39.086Z,4.00
2019-04-03T09:46:39.076Z,3.90
2019-04-03T09:47:39.066Z,3.40
2019-04-03T09:48:39.242Z,3.90
2019-04-03T09:49:42.276Z,4.00
2019-04-03T09:50:39.027Z,4.10
2019-04-03T09:51:39.152Z,3.90
2019-04-03T09:52:47.927Z,4.00
2019-04-03T09:53:40.055Z,3.70
2019-04-03T09:54:38.989Z,4.00
2019-04-03T09:55:39.017Z,3.90
2019-04-03T09:56:54.860Z,4.20
2019-04-03T09:57:40.026Z,4.00
2019-04-03T09:58:38.939Z,4.00
2019-04-03T09:59:38.928Z,3.90
2019-04-03T10:00:41.347Z,3.80
2019-04-03T10:01:38.939Z,3.70
2019-04-03T10:02:38.926Z,4.00
2019-04-03T10:03:39.250Z,3.90
2019-04-03T10:04:38.873Z,3.90
2019-04-03T10:05:38.861Z,3.90
2019-04-03T10:06:38.856Z,4.00
2019-04-03T10:07:39.200Z,3.90
2019-04-03T10:08:40.334Z,3.80
2019-04-03T10:09:39.221Z,4.10
2019-04-03T10:10:39.110Z,4.00
2019-04-03T10:11:39.695Z,3.80
2019-04-03T10:12:39.112Z,3.70
2019-04-03T10:13:38.810Z,3.90
2019-04-03T10:14:38.768Z,4.00
2019-04-03T10:15:38.756Z,3.90
2019-04-03T10:16:38.745Z,3.60
2019-04-03T10:17:39.604Z,4.00
2019-04-03T10:18:39.392Z,3.80
2019-04-03T10:19:38.746Z,3.90
2019-04-03T10:20:38.770Z,3.80
2019-04-03T10:21:38.691Z,3.60
2019-04-03T10:22:38.675Z,4.00
2019-04-03T10:23:38.690Z,4.00
2019-04-03T10:24:38.744Z,4.10
2019-04-03T10:25:39.028Z,3.80
2019-04-03T10:26:40.558Z,3.60
2019-04-03T10:27:38.947Z,3.80
2019-04-03T10:28:41.874Z,3.90
2019-04-03T10:29:38.741Z,4.00
2019-04-03T10:30:38.586Z,3.90
2019-04-03T10:31:38.587Z,4.10
2019-04-03T10:32:38.566Z,4.10
2019-04-03T10:33:38.589Z,3.80
2019-04-03T10:34:38.812Z,3.80
2019-04-03T10:35:39.352Z,3.90
2019-04-03T10:36:40.138Z,4.20
2019-04-03T10:37:38.864Z,3.70
2019-04-03T10:38:38.850Z,4.30
2019-04-03T10:39:41.954Z,4.00
2019-04-03T10:40:39.855Z,4.30
2019-04-03T10:41:38.470Z,4.30
2019-04-03T10:42:38.456Z,4.20
2019-04-03T10:43:38.777Z,3.80
2019-04-03T10:44:38.433Z,4.10
2019-04-03T10:45:38.425Z,3.90
2019-04-03T10:46:38.415Z,4.20
2019-04-03T10:47:42.689Z,3.90
2019-04-03T10:48:39.428Z,4.00
2019-04-03T10:49:38.382Z,3.90
2019-04-03T10:50:38.986Z,4.00
2019-04-03T10:51:40.597Z,4.10
2019-04-03T10:52:38.352Z,4.00
2019-04-03T10:53:38.339Z,4.10
2019-04-03T10:54:38.600Z,4.00
2019-04-03T10:55:38.312Z,4.10
2019-04-03T10:56:38.302Z,3.70
2019-04-03T10:57:38.291Z,3.80
2019-04-03T10:58:41.894Z,4.20
2019-04-03T10:59:38.274Z,3.80
2019-04-03T11:00:38.596Z,3.90
2019-04-03T11:01:38.253Z,4.20
2019-04-03T11:02:38.236Z,3.90
2019-04-03T11:03:38.439Z,4.00
2019-04-03T11:04:38.431Z,4.20
2019-04-03T11:05:38.289Z,3.90
2019-04-03T11:06:38.631Z,4.00
2019-04-03T11:07:38.184Z,4.40
2019-04-03T11:08:38.174Z,3.70
2019-04-03T11:09:38.159Z,4.10
2019-04-03T11:10:38.155Z,3.90
2019-04-03T11:11:38.143Z,4.30
2019-04-03T11:12:38.172Z,3.80
2019-04-03T11:13:38.164Z,4.10
2019-04-03T11:14:39.140Z,3.90
2019-04-03T11:15:38.251Z,3.70
2019-04-03T11:16:39.121Z,4.00
2019-04-03T11:17:38.382Z,4.00
2019-04-03T11:18:38.393Z,4.00
2019-04-03T11:19:38.231Z,4.10
2019-04-03T11:20:40.297Z,4.00
2019-04-03T11:21:38.033Z,3.80
2019-04-03T11:22:41.490Z,4.00
2019-04-03T11:23:43.742Z,4.00
2019-04-03T11:24:42.091Z,4.20
2019-04-03T11:25:40.853Z,3.90
2019-04-03T11:26:38.295Z,4.10
2019-04-03T11:27:43.320Z,4.00
2019-04-03T11:28:39.152Z,4.10
2019-04-03T11:29:40.870Z,3.90
2019-04-03T11:30:37.959Z,4.10
2019-04-03T11:31:41.476Z,4.00
2019-04-03T11:32:40.689Z,4.00
2019-04-03T11:33:37.898Z,4.00
2019-04-03T11:34:37.942Z,4.00
2019-04-03T11:35:38.149Z,4.20
2019-04-03T11:36:38.222Z,3.90
2019-04-03T11:37:37.854Z,3.90
2019-04-03T11:38:37.843Z,3.80
2019-04-03T11:39:37.995Z,3.90
2019-04-03T11:40:37.944Z,4.00
2019-04-03T11:41:37.811Z,4.20
2019-04-03T11:42:37.807Z,3.70
2019-04-03T11:43:37.814Z,4.10
2019-04-03T11:44:38.073Z,4.30
2019-04-03T11:45:37.767Z,3.90
2019-04-03T11:46:37.777Z,3.90
2019-04-03T11:47:38.053Z,3.90
2019-04-03T11:48:38.004Z,3.70
2019-04-03T11:49:38.013Z,4.20
2019-04-03T11:50:39.490Z,3.80
2019-04-03T11:51:37.704Z,3.70
2019-04-03T11:52:37.783Z,3.80
2019-04-03T11:53:38.026Z,3.80
2019-04-03T11:54:39.234Z,3.90
2019-04-03T11:55:37.966Z,4.00
2019-04-03T11:56:37.999Z,4.00
2019-04-03T11:57:37.637Z,3.80
2019-04-03T11:58:37.712Z,3.90
2019-04-03T11:59:37.616Z,3.70
2019-04-03T12:00:37.673Z,3.80
2019-04-03T12:01:37.594Z,3.80
2019-04-03T12:02:39.051Z,3.80
2019-04-03T12:03:37.571Z,3.80
2019-04-03T12:04:37.927Z,4.10
2019-04-03T12:05:37.550Z,3.80
2019-04-03T12:06:37.550Z,4.00
2019-04-03T12:07:37.534Z,3.90
2019-04-03T12:08:37.535Z,3.80
2019-04-03T12:09:37.512Z,3.90
2019-04-03T12:10:37.672Z,4.00
2019-04-03T12:11:38.412Z,4.00
2019-04-03T12:12:37.512Z,3.90
2019-04-03T12:13:37.470Z,4.00
2019-04-03T12:14:37.456Z,4.00
2019-04-03T12:15:37.797Z,4.20
2019-04-03T12:16:37.434Z,4.20
2019-04-03T12:17:37.428Z,4.00
2019-04-03T12:18:37.451Z,4.00
2019-04-03T12:19:37.967Z,4.30
2019-04-03T12:20:41.256Z,3.50
2019-04-03T12:21:38.384Z,4.10
2019-04-03T12:22:37.478Z,3.80
2019-04-03T12:23:39.311Z,4.20
2019-04-03T12:24:37.380Z,4.10
2019-04-03T12:25:39.466Z,4.00
2019-04-03T12:26:37.616Z,3.90
2019-04-03T12:27:37.316Z,3.80
2019-04-03T12:28:37.352Z,4.00
2019-04-03T12:29:37.552Z,4.00
2019-04-03T12:30:37.329Z,3.90
2019-04-03T12:31:37.281Z,4.40
2019-04-03T12:32:42.889Z,4.30
2019-04-03T12:33:38.256Z,4.10
2019-04-03T12:34:38.110Z,4.10
2019-04-03T12:35:37.398Z,4.00
2019-04-03T12:36:37.264Z,3.70
2019-04-03T12:37:37.212Z,4.40
2019-04-03T12:38:37.622Z,4.20
2019-04-03T12:39:37.195Z,4.20
2019-04-03T12:40:37.182Z,4.30
2019-04-03T12:41:37.944Z,4.40
2019-04-03T12:42:37.192Z,4.50
2019-04-03T12:43:37.417Z,4.40
2019-04-03T12:44:37.138Z,4.40
2019-04-03T12:45:37.125Z,4.60
2019-04-03T12:46:37.836Z,3.90
2019-04-03T12:47:37.108Z,4.60
2019-04-03T12:48:37.138Z,4.30
2019-04-03T12:49:37.088Z,4.30
2019-04-03T12:50:37.071Z,4.30
2019-04-03T12:51:37.060Z,4.90
2019-04-03T12:52:37.053Z,4.80
2019-04-03T12:53:37.039Z,4.80
2019-04-03T12:54:37.076Z,4.80
2019-04-03T12:55:37.038Z,4.60
2019-04-03T12:56:37.084Z,4.50
2019-04-03T12:57:39.578Z,4.90
2019-04-03T12:58:38.013Z,4.30
2019-04-03T12:59:37.982Z,4.90
2019-04-03T13:00:36.975Z,4.60
2019-04-03T13:01:36.957Z,4.80
2019-04-03T13:02:36.941Z,4.70
2019-04-03T13:03:37.767Z,4.80
2019-04-03T13:04:36.921Z,5.20
2019-04-03T13:05:38.032Z,4.70
2019-04-03T13:06:40.572Z,5.00
2019-04-03T13:07:37.486Z,5.00
2019-04-03T13:08:36.885Z,5.10
2019-04-03T13:09:38.058Z,5.00
2019-04-03T13:10:42.185Z,4.90
2019-04-03T13:11:38.559Z,4.80
2019-04-03T13:12:37.073Z,5.10
2019-04-03T13:13:38.646Z,5.50
2019-04-03T13:14:36.813Z,5.10
2019-04-03T13:15:37.904Z,5.10
2019-04-03T13:16:36.792Z,5.10
2019-04-03T13:17:36.971Z,5.20
2019-04-03T13:18:36.780Z,5.10